createdAt,value
2023-01-04T00:01:29.928Z,101487.97
2023-01-04T00:03:57.985Z,101475.69
2023-01-04T00:06:26.020Z,101480.22
2023-01-04T00:08:53.956Z,101475.56
2023-01-04T00:11:22.907Z,101486.25
2023-01-04T00:13:52.765Z,101477.69
2023-01-04T00:16:22.333Z,101484.81
2023-01-04T00:18:50.914Z,101492.34
2023-01-04T00:21:23.687Z,101495.91
2023-01-04T00:23:53.161Z,101497.31
2023-01-04T00:26:22.676Z,101507.03
2023-01-04T00:28:57.611Z,101501.78
2023-01-04T00:31:25.790Z,101501.31
2023-01-04T00:33:54.682Z,101496.78
2023-01-04T00:36:24.735Z,101495.47
2023-01-04T00:39:08.161Z,101494.75
2023-01-04T00:44:28.553Z,101500.84
2023-01-04T00:46:56.530Z,101500.38
2023-01-04T00:49:24.298Z,101498.22
2023-01-04T00:51:52.181Z,101494.78
2023-01-04T00:54:20.227Z,101490.75
2023-01-04T00:56:47.943Z,101495.19
2023-01-04T00:59:17.077Z,101500.00
2023-01-04T01:01:45.212Z,101492.28
2023-01-04T01:04:14.040Z,101500.88
2023-01-04T01:06:42.000Z,101490.84
2023-01-04T01:09:09.888Z,101497.38
2023-01-04T01:11:39.196Z,101495.91
2023-01-04T01:14:07.849Z,101495.28
2023-01-04T01:16:54.312Z,101495.28
2023-01-04T01:19:23.778Z,101489.72
2023-01-04T01:21:51.672Z,101504.63
2023-01-04T01:24:22.656Z,101498.53
2023-01-04T01:26:50.681Z,101493.91
2023-01-04T01:29:18.505Z,101497.94
2023-01-04T01:31:46.284Z,101500.91
2023-01-04T01:34:14.955Z,101499.31
2023-01-04T01:36:42.960Z,101507.97
2023-01-04T01:39:10.638Z,101511.19
2023-01-04T01:41:38.500Z,101503.94
2023-01-04T01:44:27.521Z,101509.88
2023-01-04T01:46:55.470Z,101519.69
2023-01-04T01:49:30.722Z,101516.66
2023-01-04T01:52:00.293Z,101509.28
2023-01-04T01:54:31.485Z,101514.81
2023-01-04T01:57:00.427Z,101506.13
2023-01-04T01:59:28.353Z,101500.34
2023-01-04T02:01:56.229Z,101518.16
2023-01-04T02:04:24.098Z,101510.13
2023-01-04T02:06:53.111Z,101511.09
2023-01-04T02:09:26.292Z,101511.09
2023-01-04T02:11:54.895Z,101520.81
2023-01-04T02:14:28.697Z,101514.81
2023-01-04T02:17:30.842Z,101512.69
2023-01-04T02:20:11.453Z,101520.34
2023-01-04T02:22:39.129Z,101524.75
2023-01-04T02:25:37.536Z,101513.00
2023-01-04T02:28:14.252Z,101521.75
2023-01-04T02:30:45.627Z,101522.72
2023-01-04T02:33:46.781Z,101521.91
2023-01-04T02:36:42.586Z,101515.88
2023-01-04T02:39:14.682Z,101519.34
2023-01-04T02:42:11.221Z,101521.56
2023-01-04T02:44:54.838Z,101529.66
2023-01-04T02:47:56.943Z,101533.34
2023-01-04T02:50:38.488Z,101534.09
2023-01-04T02:53:06.289Z,101536.16
2023-01-04T02:56:03.108Z,101528.69
2023-01-04T02:58:46.063Z,101536.53
2023-01-04T03:01:32.987Z,101531.88
2023-01-04T03:04:34.919Z,101543.44
2023-01-04T03:07:11.548Z,101541.81
2023-01-04T03:09:40.619Z,101546.47
2023-01-04T03:12:32.528Z,101547.22
2023-01-04T03:15:12.700Z,101545.84
2023-01-04T03:17:47.148Z,101550.75
2023-01-04T03:20:14.933Z,101548.91
2023-01-04T03:23:04.770Z,101543.63
2023-01-04T03:25:57.763Z,101558.69
2023-01-04T03:28:46.415Z,101548.66
2023-01-04T03:31:46.064Z,101555.03
2023-01-04T03:34:32.302Z,101563.22
2023-01-04T03:37:19.210Z,101564.56
2023-01-04T03:40:05.505Z,101562.81
2023-01-04T03:42:52.106Z,101561.47
2023-01-04T03:46:09.164Z,101558.00
2023-01-04T03:49:13.306Z,101555.31
2023-01-04T03:51:41.166Z,101551.28
2023-01-04T03:54:09.883Z,101553.84
2023-01-04T03:56:42.053Z,101554.94
2023-01-04T03:59:10.229Z,101556.09
2023-01-04T04:01:38.098Z,101557.28
2023-01-04T04:04:24.434Z,101561.22
2023-01-04T04:07:10.952Z,101559.25
2023-01-04T04:09:38.725Z,101565.97
2023-01-04T04:12:07.048Z,101563.16
2023-01-04T04:14:34.870Z,101557.50
2023-01-04T04:17:05.514Z,101564.84
2023-01-04T04:19:34.629Z,101570.13
2023-01-04T04:22:02.409Z,101568.88
2023-01-04T04:24:32.553Z,101566.13
2023-01-04T04:27:00.909Z,101568.72
2023-01-04T04:29:28.725Z,101571.00
2023-01-04T04:31:57.403Z,101570.91
2023-01-04T04:34:25.292Z,101563.03
2023-01-04T04:36:53.455Z,101560.84
2023-01-04T04:39:21.304Z,101560.94
2023-01-04T04:41:49.023Z,101566.03
2023-01-04T04:44:19.544Z,101552.53
2023-01-04T04:46:47.704Z,101554.25
2023-01-04T04:49:15.814Z,101548.63
2023-01-04T04:51:44.068Z,101559.03
2023-01-04T04:54:18.853Z,101564.94
2023-01-04T04:56:47.218Z,101563.31
2023-01-04T04:59:15.045Z,101557.44
2023-01-04T05:01:43.230Z,101559.84
2023-01-04T05:04:16.814Z,101561.09
2023-01-04T05:06:45.845Z,101558.38
2023-01-04T05:09:17.027Z,101556.44
2023-01-04T05:12:03.816Z,101558.38
2023-01-04T05:14:31.646Z,101554.03
2023-01-04T05:16:59.396Z,101557.28
2023-01-04T05:19:28.674Z,101554.59
2023-01-04T05:21:56.340Z,101558.94
2023-01-04T05:24:24.125Z,101566.50
2023-01-04T05:26:51.881Z,101571.28
2023-01-04T05:29:38.185Z,101561.81
2023-01-04T05:32:06.328Z,101569.38
2023-01-04T05:34:34.107Z,101569.81
2023-01-04T05:37:01.989Z,101567.78
2023-01-04T05:39:31.210Z,101567.22
2023-01-04T05:42:17.317Z,101569.47
2023-01-04T05:44:45.286Z,101571.91
2023-01-04T05:47:15.166Z,101576.53
2023-01-04T05:49:43.271Z,101571.06
2023-01-04T05:52:11.190Z,101577.06
2023-01-04T05:54:38.939Z,101572.59
2023-01-04T05:57:06.943Z,101576.03
2023-01-04T05:59:41.128Z,101584.31
2023-01-04T06:02:25.817Z,101584.84
2023-01-04T06:04:58.842Z,101590.25
2023-01-04T06:07:28.149Z,101593.50
2023-01-04T06:09:56.349Z,101591.34
2023-01-04T06:12:24.186Z,101600.41
2023-01-04T06:14:52.660Z,101605.66
2023-01-04T06:17:20.617Z,101607.25
2023-01-04T06:19:48.429Z,101613.50
2023-01-04T06:22:16.287Z,101609.59
2023-01-04T06:24:44.046Z,101603.03
2023-01-04T06:27:11.830Z,101613.59
2023-01-04T06:29:39.798Z,101615.75
2023-01-04T06:32:07.760Z,101612.59
2023-01-04T06:34:35.521Z,101611.16
2023-01-04T06:37:03.217Z,101615.25
2023-01-04T06:39:30.853Z,101616.84
2023-01-04T06:42:05.771Z,101611.22
2023-01-04T06:44:34.526Z,101631.13
2023-01-04T06:47:02.379Z,101631.78
2023-01-04T06:49:30.351Z,101634.13
2023-01-04T06:51:59.053Z,101636.59
2023-01-04T06:54:35.976Z,101634.16
2023-01-04T06:57:03.799Z,101639.31
2023-01-04T06:59:32.728Z,101641.78
2023-01-04T07:02:00.476Z,101645.22
2023-01-04T07:04:28.180Z,101643.41
2023-01-04T07:06:56.059Z,101650.25
2023-01-04T07:09:24.118Z,101658.47
2023-01-04T07:11:52.156Z,101644.03
2023-01-04T07:14:19.953Z,101654.47
2023-01-04T07:16:47.967Z,101651.53
2023-01-04T07:19:15.890Z,101659.72
2023-01-04T07:21:43.589Z,101662.94
2023-01-04T07:24:11.671Z,101656.44
2023-01-04T07:26:40.397Z,101656.97
2023-01-04T07:29:15.848Z,101654.78
2023-01-04T07:31:47.796Z,101666.06
2023-01-04T07:34:17.997Z,101660.81
2023-01-04T07:36:46.581Z,101661.53
2023-01-04T07:39:14.400Z,101666.06
2023-01-04T07:41:42.280Z,101672.31
2023-01-04T07:44:11.142Z,101670.13
2023-01-04T07:46:39.052Z,101678.00
2023-01-04T07:49:11.584Z,101670.19
2023-01-04T07:51:42.449Z,101670.19
2023-01-04T07:54:11.336Z,101678.06
2023-01-04T07:56:39.298Z,101675.13
2023-01-04T07:59:08.294Z,101686.06
2023-01-04T08:01:38.167Z,101682.50
2023-01-04T08:04:06.922Z,101691.00
2023-01-04T08:06:35.226Z,101680.81
2023-01-04T08:09:03.478Z,101689.06
2023-01-04T08:11:31.312Z,101696.53
2023-01-04T08:13:59.030Z,101699.00
2023-01-04T08:16:37.170Z,101696.56
2023-01-04T08:19:07.571Z,101694.22
2023-01-04T08:21:38.818Z,101676.56
2023-01-04T08:24:06.769Z,101673.75
2023-01-04T08:26:35.212Z,101693.13
2023-01-04T08:29:02.997Z,101695.59
2023-01-04T08:31:32.386Z,101685.28
2023-01-04T08:34:02.690Z,101679.03
2023-01-04T08:36:35.126Z,101680.97
2023-01-04T08:39:05.188Z,101694.63
2023-01-04T08:42:04.785Z,101689.81
2023-01-04T08:44:39.104Z,101687.97
2023-01-04T08:47:06.923Z,101679.38
2023-01-04T08:49:34.787Z,101679.84
2023-01-04T08:52:02.509Z,101671.72
2023-01-04T08:54:30.462Z,101673.59
2023-01-04T08:56:58.346Z,101685.47
2023-01-04T08:59:26.050Z,101676.97
2023-01-04T09:01:53.816Z,101676.34
2023-01-04T09:04:21.812Z,101670.59
2023-01-04T09:06:49.774Z,101686.94
2023-01-04T09:09:17.799Z,101699.31
2023-01-04T09:11:45.767Z,101691.84
2023-01-04T09:14:14.205Z,101705.78
2023-01-04T09:16:42.373Z,101677.53
2023-01-04T09:19:10.041Z,101681.06
2023-01-04T09:21:37.670Z,101691.38
2023-01-04T09:24:05.493Z,101697.28
2023-01-04T09:26:33.168Z,101670.84
2023-01-04T09:29:01.022Z,101682.41
2023-01-04T09:31:29.140Z,101664.72
2023-01-04T09:34:14.013Z,101664.25
2023-01-04T09:36:43.939Z,101665.91
2023-01-04T09:39:18.710Z,101668.06
2023-01-04T09:42:01.568Z,101655.88
2023-01-04T09:47:46.329Z,101666.84
2023-01-04T09:50:22.152Z,101667.31
2023-01-04T09:52:52.142Z,101681.75
2023-01-04T09:55:36.911Z,101670.59
2023-01-04T09:58:35.721Z,101663.03
2023-01-04T10:01:08.517Z,101655.13
2023-01-04T10:03:39.476Z,101667.25
2023-01-04T10:06:10.203Z,101634.38
2023-01-04T10:08:38.063Z,101645.78
2023-01-04T10:11:19.511Z,101653.44
2023-01-04T10:14:00.594Z,101645.31
2023-01-04T10:17:10.945Z,101658.66
2023-01-04T10:22:40.675Z,101660.19
2023-01-04T10:25:41.579Z,101668.38
2023-01-04T10:28:25.997Z,101646.22
2023-01-04T10:30:55.323Z,101618.50
2023-01-04T10:33:34.388Z,101647.63
2023-01-04T10:36:02.293Z,101640.41
2023-01-04T10:38:36.699Z,101657.19
2023-01-04T10:41:07.582Z,101643.63
2023-01-04T10:44:11.461Z,101662.97
2023-01-04T10:46:44.179Z,101663.88
2023-01-04T10:49:16.859Z,101664.75
2023-01-04T10:51:53.252Z,101648.69
2023-01-04T10:54:45.630Z,101686.94
2023-01-04T10:57:25.617Z,101661.50
2023-01-04T11:00:11.128Z,101664.22
2023-01-04T11:02:46.166Z,101667.66
2023-01-04T11:05:21.093Z,101655.28
2023-01-04T11:07:58.380Z,101665.28
2023-01-04T11:10:31.973Z,101664.72
2023-01-04T11:13:00.108Z,101656.28
2023-01-04T11:15:29.009Z,101654.81
2023-01-04T11:17:56.859Z,101663.50
2023-01-04T11:20:27.089Z,101656.81
2023-01-04T11:23:01.480Z,101656.16
2023-01-04T11:25:37.257Z,101658.59
2023-01-04T11:28:36.229Z,101655.38
2023-01-04T11:31:07.821Z,101667.69
2023-01-04T11:33:57.575Z,101658.78
2023-01-04T11:36:31.720Z,101668.50
2023-01-04T11:39:01.422Z,101646.38
2023-01-04T11:41:29.319Z,101666.19
2023-01-04T11:43:58.743Z,101662.88
2023-01-04T11:46:27.363Z,101656.34
2023-01-04T11:48:55.591Z,101649.69
2023-01-04T11:51:29.965Z,101660.16
2023-01-04T11:54:06.603Z,101655.00
2023-01-04T11:56:36.112Z,101654.75
2023-01-04T11:59:06.662Z,101654.38
2023-01-04T12:01:36.801Z,101650.66
2023-01-04T12:04:09.887Z,101654.22
2023-01-04T12:06:52.629Z,101652.63
2023-01-04T12:09:21.172Z,101654.72
2023-01-04T12:11:54.019Z,101661.50
2023-01-04T12:14:25.958Z,101674.28
2023-01-04T12:17:16.941Z,101666.91
2023-01-04T12:19:44.967Z,101683.03
2023-01-04T12:22:26.825Z,101696.56
2023-01-04T12:25:01.056Z,101691.28
2023-01-04T12:27:29.980Z,101702.34
2023-01-04T12:29:59.607Z,101711.47
2023-01-04T12:32:30.800Z,101704.81
2023-01-04T12:35:00.615Z,101722.16
2023-01-04T12:37:48.658Z,101707.03
2023-01-04T12:40:53.698Z,101718.63
2023-01-04T12:43:28.946Z,101729.44
2023-01-04T12:46:49.443Z,101718.50
2023-01-04T12:49:26.335Z,101720.09
2023-01-04T12:54:58.869Z,101702.91
2023-01-04T12:57:36.742Z,101720.13
2023-01-04T13:00:05.131Z,101720.47
2023-01-04T13:02:52.348Z,101735.84
2023-01-04T13:05:55.617Z,101736.59
2023-01-04T13:08:12.823Z,101730.19
2023-01-04T13:10:42.470Z,101734.38
2023-01-04T13:13:38.876Z,101725.31
2023-01-04T13:16:10.545Z,101713.50
2023-01-04T13:18:47.659Z,101714.25
2023-01-04T13:21:19.003Z,101718.16
2023-01-04T13:23:57.609Z,101726.41
2023-01-04T13:26:31.822Z,101726.78
2023-01-04T13:29:22.352Z,101723.47
2023-01-04T13:32:00.924Z,101714.25
2023-01-04T13:34:38.094Z,101715.84
2023-01-04T13:37:14.384Z,101705.41
2023-01-04T13:40:01.935Z,101714.47
2023-01-04T13:42:31.976Z,101712.28
2023-01-04T13:45:19.712Z,101718.19
2023-01-04T13:47:56.037Z,101719.28
2023-01-04T13:50:34.044Z,101720.88
2023-01-04T13:53:07.689Z,101722.34
2023-01-04T13:55:37.816Z,101720.25
2023-01-04T13:58:20.021Z,101713.88
2023-01-04T14:01:13.043Z,101710.31
2023-01-04T14:03:42.658Z,101704.31
2023-01-04T14:06:11.616Z,101703.22
2023-01-04T14:08:53.407Z,101714.38
2023-01-04T14:11:44.452Z,101712.28
2023-01-04T14:14:51.894Z,101718.31
2023-01-04T14:17:26.862Z,101723.22
2023-01-04T14:19:55.643Z,101725.31
2023-01-04T14:22:28.214Z,101724.31
2023-01-04T14:25:08.937Z,101738.81
2023-01-04T14:27:41.041Z,101732.06
2023-01-04T14:30:17.854Z,101757.34
2023-01-04T14:32:59.222Z,101759.78
2023-01-04T14:35:27.211Z,101759.56
2023-01-04T14:37:55.051Z,101759.94
2023-01-04T14:40:27.919Z,101747.38
2023-01-04T14:42:55.679Z,101758.19
2023-01-04T14:45:23.614Z,101750.59
2023-01-04T14:47:51.382Z,101748.50
2023-01-04T14:50:19.182Z,101752.56
2023-01-04T14:52:51.880Z,101752.69
2023-01-04T14:55:20.190Z,101752.56
2023-01-04T14:57:48.188Z,101752.06
2023-01-04T15:00:19.535Z,101757.47
2023-01-04T15:02:52.248Z,101752.28
2023-01-04T15:05:20.810Z,101756.69
2023-01-04T15:07:48.961Z,101755.09
2023-01-04T15:10:25.147Z,101749.97
2023-01-04T15:12:53.774Z,101747.38
2023-01-04T15:15:22.563Z,101751.94
2023-01-04T15:17:50.890Z,101753.28
2023-01-04T15:20:19.492Z,101749.72
2023-01-04T15:22:47.521Z,101752.56
2023-01-04T15:25:15.322Z,101755.50
2023-01-04T15:27:43.334Z,101755.97
2023-01-04T15:30:12.502Z,101750.28
2023-01-04T15:32:41.859Z,101749.69
2023-01-04T15:35:10.023Z,101754.63
2023-01-04T15:37:37.986Z,101759.41
2023-01-04T15:40:07.646Z,101759.25
2023-01-04T15:42:53.980Z,101756.97
2023-01-04T15:45:24.083Z,101751.66
2023-01-04T15:47:52.039Z,101758.94
2023-01-04T15:50:20.621Z,101755.97
2023-01-04T15:52:48.371Z,101751.28
2023-01-04T15:55:16.211Z,101762.38
2023-01-04T15:57:44.513Z,101752.03
2023-01-04T16:00:12.987Z,101750.81
2023-01-04T16:02:41.797Z,101746.03
2023-01-04T16:05:10.860Z,101751.06
2023-01-04T16:07:39.598Z,101753.13
2023-01-04T16:10:07.942Z,101753.41
2023-01-04T16:12:41.801Z,101742.97
2023-01-04T16:15:17.188Z,101752.91
2023-01-04T16:17:45.869Z,101748.69
2023-01-04T16:20:14.990Z,101764.56
2023-01-04T16:22:43.224Z,101748.22
2023-01-04T16:25:12.973Z,101764.78
2023-01-04T16:27:41.434Z,101766.91
2023-01-04T16:30:11.677Z,101755.38
2023-01-04T16:32:41.011Z,101774.13
2023-01-04T16:35:09.264Z,101761.38
2023-01-04T16:37:37.076Z,101766.75
2023-01-04T16:40:09.984Z,101772.06
2023-01-04T16:42:38.256Z,101761.50
2023-01-04T16:45:06.668Z,101755.97
2023-01-04T16:47:41.803Z,101761.38
2023-01-04T16:50:10.644Z,101774.59
2023-01-04T16:52:40.337Z,101765.53
2023-01-04T16:55:08.950Z,101777.66
2023-01-04T16:57:36.835Z,101770.44
2023-01-04T17:00:05.264Z,101768.97
2023-01-04T17:02:33.414Z,101781.69
2023-01-04T17:05:01.440Z,101776.56
2023-01-04T17:07:33.123Z,101779.25
2023-01-04T17:10:01.719Z,101776.56
2023-01-04T17:12:46.832Z,101774.47
2023-01-04T17:15:41.839Z,101777.53
2023-01-04T17:18:04.121Z,101775.97
2023-01-04T17:20:32.100Z,101778.38
2023-01-04T17:23:00.260Z,101779.25
2023-01-04T17:25:31.072Z,101778.53
2023-01-04T17:27:59.071Z,101768.19
2023-01-04T17:30:27.009Z,101780.72
2023-01-04T17:32:55.461Z,101775.56
2023-01-04T17:35:23.499Z,101764.16
2023-01-04T17:37:54.015Z,101769.66
2023-01-04T17:40:25.312Z,101772.34
2023-01-04T17:42:53.194Z,101774.53
2023-01-04T17:45:22.004Z,101768.91
2023-01-04T17:47:50.307Z,101771.16
2023-01-04T17:50:19.646Z,101768.78
2023-01-04T17:52:53.584Z,101765.94
2023-01-04T17:55:22.036Z,101772.84
2023-01-04T17:57:52.671Z,101765.66
2023-01-04T18:00:21.909Z,101762.28
2023-01-04T18:02:52.991Z,101761.19
2023-01-04T18:05:21.115Z,101757.56
2023-01-04T18:07:49.126Z,101757.84
2023-01-04T18:10:27.171Z,101755.28
2023-01-04T18:13:05.174Z,101757.31
2023-01-04T18:15:36.264Z,101754.75
2023-01-04T18:18:29.068Z,101750.56
2023-01-04T18:20:59.776Z,101745.44
2023-01-04T18:23:29.752Z,101744.19
2023-01-04T18:26:02.406Z,101745.06
2023-01-04T18:28:30.908Z,101739.38
2023-01-04T18:30:58.790Z,101744.78
2023-01-04T18:33:27.001Z,101755.19
2023-01-04T18:35:55.188Z,101758.03
2023-01-04T18:38:23.331Z,101753.84
2023-01-04T18:40:51.333Z,101746.31
2023-01-04T18:43:19.538Z,101735.09
2023-01-04T18:45:47.625Z,101742.16
2023-01-04T18:48:16.450Z,101733.75
2023-01-04T18:50:44.538Z,101729.25
2023-01-04T18:53:14.018Z,101729.81
2023-01-04T18:55:42.505Z,101740.44
2023-01-04T18:58:10.909Z,101741.75
2023-01-04T19:00:40.195Z,101742.41
2023-01-04T19:03:13.373Z,101749.63
2023-01-04T19:05:45.321Z,101744.81
2023-01-04T19:08:13.901Z,101750.22
2023-01-04T19:10:43.851Z,101750.38
2023-01-04T19:13:12.876Z,101745.41
2023-01-04T19:15:47.574Z,101749.41
2023-01-04T19:18:30.797Z,101740.78
2023-01-04T19:21:01.261Z,101745.09
2023-01-04T19:23:29.836Z,101728.09
2023-01-04T19:25:58.447Z,101739.28
2023-01-04T19:28:26.823Z,101736.94
2023-01-04T19:30:55.106Z,101746.50
2023-01-04T19:33:25.196Z,101747.56
2023-01-04T19:35:56.383Z,101746.66
2023-01-04T19:38:24.918Z,101746.84
2023-01-04T19:41:00.099Z,101752.47
2023-01-04T19:43:28.633Z,101733.13
2023-01-04T19:45:57.088Z,101719.38
2023-01-04T19:48:31.676Z,101717.03
2023-01-04T19:51:15.138Z,101711.53
2023-01-04T19:53:44.490Z,101720.13
2023-01-04T19:56:13.192Z,101720.22
2023-01-04T19:58:41.447Z,101720.91
2023-01-04T20:01:13.991Z,101707.63
2023-01-04T20:03:43.368Z,101703.63
2023-01-04T20:06:11.982Z,101700.72
2023-01-04T20:08:40.502Z,101708.78
2023-01-04T20:11:09.267Z,101709.09
2023-01-04T20:13:38.352Z,101706.81
2023-01-04T20:16:07.070Z,101704.38
2023-01-04T20:18:36.338Z,101704.53
2023-01-04T20:21:11.376Z,101688.03
2023-01-04T20:23:39.443Z,101683.88
2023-01-04T20:26:11.435Z,101690.97
2023-01-04T20:28:39.734Z,101688.00
2023-01-04T20:31:09.044Z,101695.41
2023-01-04T20:33:38.087Z,101704.16
2023-01-04T20:36:13.899Z,101708.66
2023-01-04T20:38:42.735Z,101705.31
2023-01-04T20:41:16.418Z,101706.41
2023-01-04T20:43:44.990Z,101696.94
2023-01-04T20:46:17.752Z,101694.22
2023-01-04T20:48:45.982Z,101702.16
2023-01-04T20:51:18.633Z,101700.72
2023-01-04T20:53:46.540Z,101701.47
2023-01-04T20:56:19.291Z,101702.53
2023-01-04T20:58:47.413Z,101700.25
2023-01-04T21:01:15.524Z,101701.22
2023-01-04T21:03:43.412Z,101708.22
2023-01-04T21:06:13.169Z,101708.50
2023-01-04T21:08:42.551Z,101704.09
2023-01-04T21:11:10.538Z,101693.47
2023-01-04T21:13:38.281Z,101692.22
2023-01-04T21:16:06.781Z,101710.03
2023-01-04T21:18:34.641Z,101705.44
2023-01-04T21:21:10.079Z,101704.63
2023-01-04T21:23:38.522Z,101704.63
2023-01-04T21:26:07.393Z,101694.72
2023-01-04T21:28:35.152Z,101699.00
2023-01-04T21:31:02.965Z,101712.94
2023-01-04T21:33:30.765Z,101712.63
2023-01-04T21:35:58.364Z,101705.19
2023-01-04T21:38:27.873Z,101696.66
2023-01-04T21:40:55.451Z,101698.75
2023-01-04T21:43:23.074Z,101691.22
2023-01-04T21:45:50.651Z,101692.19
2023-01-04T21:48:18.237Z,101684.50
2023-01-04T21:50:45.882Z,101686.41
2023-01-04T21:53:13.476Z,101685.97
2023-01-04T21:55:41.218Z,101684.50
2023-01-04T21:58:08.902Z,101692.75
2023-01-04T22:00:36.517Z,101683.31
2023-01-04T22:03:04.142Z,101678.06
2023-01-04T22:05:32.109Z,101675.63
2023-01-04T22:07:59.814Z,101678.31
2023-01-04T22:10:27.392Z,101664.06
2023-01-04T22:12:58.130Z,101667.94
2023-01-04T22:15:25.706Z,101664.50
2023-01-04T22:17:53.306Z,101665.53
2023-01-04T22:20:21.012Z,101655.78
2023-01-04T22:22:48.700Z,101650.19
2023-01-04T22:25:17.850Z,101651.72
2023-01-04T22:27:49.622Z,101645.19
2023-01-04T22:30:17.392Z,101650.00
2023-01-04T22:32:45.067Z,101640.59
2023-01-04T22:35:12.842Z,101635.06
2023-01-04T22:37:40.393Z,101641.97
2023-01-04T22:40:08.829Z,101633.94
2023-01-04T22:42:36.722Z,101640.03
2023-01-04T22:45:11.029Z,101647.81
2023-01-04T22:47:40.765Z,101642.28
2023-01-04T22:50:08.558Z,101641.75
2023-01-04T22:52:36.201Z,101645.78
2023-01-04T22:55:04.230Z,101636.25
2023-01-04T22:57:32.043Z,101633.03
2023-01-04T22:59:59.627Z,101633.63
2023-01-04T23:02:27.288Z,101630.88
2023-01-04T23:04:54.898Z,101627.91
2023-01-04T23:07:22.470Z,101625.88
2023-01-04T23:09:50.057Z,101613.00
2023-01-04T23:12:17.932Z,101619.69
2023-01-04T23:14:45.622Z,101616.53
2023-01-04T23:17:13.207Z,101607.38
2023-01-04T23:20:00.867Z,101608.03
2023-01-04T23:22:28.717Z,101608.31
2023-01-04T23:24:56.326Z,101602.97
2023-01-04T23:27:23.883Z,101609.28
2023-01-04T23:29:51.534Z,101592.53
2023-01-04T23:32:19.684Z,101588.69
2023-01-04T23:34:50.721Z,101591.56
2023-01-04T23:37:18.727Z,101582.81
2023-01-04T23:40:42.989Z,101583.75
2023-01-04T23:43:25.450Z,101574.16
2023-01-04T23:45:53.009Z,101570.50
2023-01-04T23:48:20.978Z,101567.72
2023-01-04T23:50:56.361Z,101558.97
2023-01-04T23:53:24.405Z,101564.38
2023-01-04T23:55:58.839Z,101558.50
2023-01-04T23:58:31.415Z,101563.56
